createdAt,value
2024-04-22T00:00:24.981Z,7.90
2024-04-22T00:01:25.043Z,5.70
2024-04-22T00:02:24.979Z,7.00
2024-04-22T00:03:25.051Z,6.60
2024-04-22T00:04:24.971Z,6.80
2024-04-22T00:05:24.920Z,6.30
2024-04-22T00:06:24.907Z,7.20
2024-04-22T00:07:24.933Z,6.90
2024-04-22T00:08:24.891Z,6.80
2024-04-22T00:09:24.884Z,6.00
2024-04-22T00:10:24.896Z,8.40
2024-04-22T00:11:24.880Z,6.10
2024-04-22T00:12:24.847Z,6.40
2024-04-22T00:13:24.861Z,5.60
2024-04-22T00:14:24.830Z,6.80
2024-04-22T00:15:24.794Z,7.70
2024-04-22T00:16:24.798Z,8.10
2024-04-22T00:17:24.826Z,8.50
2024-04-22T00:18:24.748Z,8.30
2024-04-22T00:19:24.789Z,7.50
2024-04-22T00:20:24.755Z,8.00
2024-04-22T00:21:24.704Z,6.90
2024-04-22T00:22:24.714Z,7.60
2024-04-22T00:23:24.678Z,7.70
2024-04-22T00:24:24.677Z,7.60
2024-04-22T00:25:24.721Z,12.50
2024-04-22T00:26:24.678Z,7.70
2024-04-22T00:27:24.630Z,7.40
2024-04-22T00:28:24.643Z,6.30
2024-04-22T00:29:24.658Z,6.90
2024-04-22T00:30:24.596Z,6.50
2024-04-22T00:31:24.654Z,5.90
2024-04-22T00:32:24.644Z,6.50
2024-04-22T00:33:24.630Z,4.90
2024-04-22T00:34:24.573Z,6.90
2024-04-22T00:35:24.540Z,6.60
2024-04-22T00:36:24.543Z,6.10
2024-04-22T00:37:24.584Z,6.90
2024-04-22T00:38:24.504Z,6.50
2024-04-22T00:39:24.491Z,6.10
2024-04-22T00:40:24.512Z,7.00
2024-04-22T00:41:24.447Z,7.40
2024-04-22T00:42:24.459Z,7.80
2024-04-22T00:43:24.490Z,8.10
2024-04-22T00:44:24.446Z,8.30
2024-04-22T00:45:24.454Z,9.80
2024-04-22T00:46:24.417Z,8.10
2024-04-22T00:47:24.468Z,7.20
2024-04-22T00:48:24.405Z,8.80
2024-04-22T00:49:24.397Z,7.30
2024-04-22T00:50:24.347Z,8.20
2024-04-22T00:51:24.322Z,9.40
2024-04-22T00:52:24.336Z,7.30
2024-04-22T00:53:24.324Z,7.90
2024-04-22T00:54:24.307Z,7.90
2024-04-22T00:55:24.291Z,8.40
2024-04-22T00:56:24.258Z,8.40
2024-04-22T00:57:24.253Z,9.00
2024-04-22T00:58:24.283Z,8.40
2024-04-22T00:59:24.237Z,11.90
2024-04-22T01:00:24.244Z,10.50
2024-04-22T01:01:24.216Z,8.30
2024-04-22T01:02:24.192Z,8.70
2024-04-22T01:03:24.172Z,7.50
2024-04-22T01:04:24.316Z,7.80
2024-04-22T01:05:24.146Z,8.00
2024-04-22T01:06:24.138Z,8.00
2024-04-22T01:07:24.156Z,7.40
2024-04-22T01:08:24.152Z,8.70
2024-04-22T01:09:24.090Z,9.10
2024-04-22T01:10:24.133Z,8.60
2024-04-22T01:11:24.118Z,9.30
2024-04-22T01:12:24.065Z,8.40
2024-04-22T01:13:24.187Z,9.10
2024-04-22T01:14:24.034Z,6.40
2024-04-22T01:15:24.035Z,8.30
2024-04-22T01:16:24.089Z,8.20
2024-04-22T01:17:24.121Z,7.80
2024-04-22T01:18:24.062Z,8.20
2024-04-22T01:19:24.279Z,7.10
2024-04-22T01:20:23.986Z,7.20
2024-04-22T01:21:23.984Z,8.20
2024-04-22T01:22:23.965Z,8.10
2024-04-22T01:23:23.919Z,7.90
2024-04-22T01:24:23.934Z,10.80
2024-04-22T01:25:23.942Z,7.20
2024-04-22T01:26:23.896Z,7.30
2024-04-22T01:27:23.874Z,8.10
2024-04-22T01:28:23.854Z,7.00
2024-04-22T01:29:23.829Z,7.30
2024-04-22T01:30:23.850Z,6.70
2024-04-22T01:31:23.851Z,7.80
2024-04-22T01:32:23.864Z,7.30
2024-04-22T01:33:23.878Z,9.40
2024-04-22T01:34:23.820Z,7.60
2024-04-22T01:35:23.778Z,7.00
2024-04-22T01:36:23.757Z,7.90
2024-04-22T01:37:23.800Z,7.00
2024-04-22T01:38:23.737Z,8.80
2024-04-22T01:39:23.717Z,6.70
2024-04-22T01:40:23.803Z,10.40
2024-04-22T01:41:23.689Z,7.00
2024-04-22T01:42:23.690Z,7.20
2024-04-22T01:43:23.708Z,7.90
2024-04-22T01:44:23.655Z,7.30
2024-04-22T01:45:23.647Z,7.70
2024-04-22T01:46:23.685Z,6.90
2024-04-22T01:47:23.637Z,9.10
2024-04-22T01:48:23.631Z,7.30
2024-04-22T01:49:23.645Z,8.10
2024-04-22T01:50:23.576Z,6.80
2024-04-22T01:51:23.552Z,7.50
2024-04-22T01:52:23.583Z,7.10
2024-04-22T01:53:23.526Z,7.10
2024-04-22T01:54:23.571Z,7.70
2024-04-22T01:55:23.546Z,7.30
2024-04-22T01:56:23.519Z,7.10
2024-04-22T01:57:23.501Z,8.40
2024-04-22T01:58:23.514Z,9.10
2024-04-22T01:59:23.500Z,7.10
2024-04-22T02:00:23.451Z,6.60
2024-04-22T02:01:23.468Z,7.60
2024-04-22T02:02:23.484Z,7.00
2024-04-22T02:03:23.445Z,8.00
2024-04-22T02:04:23.441Z,6.80
2024-04-22T02:05:23.397Z,8.40
2024-04-22T02:06:23.396Z,8.80
2024-04-22T02:07:24.554Z,7.30
2024-04-22T02:08:23.365Z,8.70
2024-04-22T02:09:23.325Z,7.20
2024-04-22T02:10:24.287Z,7.90
2024-04-22T02:11:23.378Z,7.10
2024-04-22T02:12:23.288Z,7.70
2024-04-22T02:13:23.361Z,7.80
2024-04-22T02:14:23.295Z,8.40
2024-04-22T02:15:23.266Z,8.00
2024-04-22T02:16:23.319Z,7.10
2024-04-22T02:17:23.281Z,7.70
2024-04-22T02:18:23.277Z,7.50
2024-04-22T02:19:23.269Z,8.30
2024-04-22T02:20:23.193Z,7.00
2024-04-22T02:21:23.195Z,7.70
2024-04-22T02:22:23.237Z,7.40
2024-04-22T02:23:23.173Z,8.50
2024-04-22T02:24:23.136Z,9.70
2024-04-22T02:25:23.173Z,7.10
2024-04-22T02:26:23.148Z,7.00
2024-04-22T02:27:23.118Z,7.80
2024-04-22T02:28:23.119Z,8.60
2024-04-22T02:29:23.099Z,8.00
2024-04-22T02:30:23.069Z,7.40
2024-04-22T02:31:23.059Z,9.40
2024-04-22T02:32:23.084Z,8.10
2024-04-22T02:33:23.068Z,7.90
2024-04-22T02:34:23.079Z,7.20
2024-04-22T02:35:23.005Z,8.60
2024-04-22T02:36:22.998Z,8.50
2024-04-22T02:37:22.991Z,7.80
2024-04-22T02:38:22.989Z,7.30
2024-04-22T02:39:22.982Z,8.10
2024-04-22T02:40:23.004Z,9.90
2024-04-22T02:41:22.930Z,7.90
2024-04-22T02:42:22.917Z,7.50
2024-04-22T02:43:22.947Z,8.90
2024-04-22T02:44:22.898Z,8.20
2024-04-22T02:45:22.879Z,7.90
2024-04-22T02:46:22.884Z,7.00
2024-04-22T02:47:22.890Z,8.90
2024-04-22T02:48:22.929Z,7.40
2024-04-22T02:49:22.882Z,8.10
2024-04-22T02:50:22.820Z,7.90
2024-04-22T02:51:22.815Z,8.90
2024-04-22T02:52:22.819Z,7.70
2024-04-22T02:53:22.781Z,9.60
2024-04-22T02:54:22.774Z,10.50
2024-04-22T02:55:22.779Z,8.50
2024-04-22T02:56:22.729Z,8.90
2024-04-22T02:57:22.735Z,8.00
2024-04-22T02:58:22.737Z,8.90
2024-04-22T02:59:22.731Z,7.90
2024-04-22T03:00:22.737Z,9.00
2024-04-22T03:01:22.741Z,7.80
2024-04-22T03:02:22.694Z,8.30
2024-04-22T03:03:22.658Z,8.50
2024-04-22T03:04:22.663Z,7.80
2024-04-22T03:05:22.640Z,7.30
2024-04-22T03:06:22.616Z,8.20
2024-04-22T03:07:22.613Z,9.10
2024-04-22T03:08:22.587Z,9.20
2024-04-22T03:09:22.610Z,8.50
2024-04-22T03:10:22.678Z,7.50
2024-04-22T03:11:22.543Z,8.30
2024-04-22T03:12:22.540Z,9.70
2024-04-22T03:13:22.530Z,8.30
2024-04-22T03:14:22.542Z,9.00
2024-04-22T03:15:22.492Z,8.20
2024-04-22T03:16:22.525Z,9.30
2024-04-22T03:17:22.487Z,8.70
2024-04-22T03:18:22.480Z,7.90
2024-04-22T03:19:22.506Z,7.60
2024-04-22T03:20:24.528Z,8.30
2024-04-22T03:21:22.435Z,9.20
2024-04-22T03:22:22.441Z,8.50
2024-04-22T03:23:22.421Z,9.00
2024-04-22T03:24:22.390Z,8.60
2024-04-22T03:25:22.413Z,8.10
2024-04-22T03:26:22.364Z,8.40
2024-04-22T03:27:22.372Z,8.40
2024-04-22T03:28:22.343Z,7.00
2024-04-22T03:29:22.332Z,8.80
2024-04-22T03:30:22.336Z,8.70
2024-04-22T03:31:22.346Z,8.40
2024-04-22T03:32:22.375Z,9.50
2024-04-22T03:33:22.271Z,9.20
2024-04-22T03:34:22.302Z,11.60
2024-04-22T03:35:22.260Z,8.30
2024-04-22T03:36:22.241Z,9.10
2024-04-22T03:37:22.254Z,8.70
2024-04-22T03:38:22.242Z,7.50
2024-04-22T03:39:22.183Z,7.50
2024-04-22T03:40:22.261Z,8.70
2024-04-22T03:41:22.172Z,8.80
2024-04-22T03:42:22.164Z,8.70
2024-04-22T03:43:22.162Z,9.50
2024-04-22T03:44:22.180Z,8.30
2024-04-22T03:45:22.136Z,9.60
2024-04-22T03:46:22.150Z,9.50
2024-04-22T03:47:22.161Z,8.30
2024-04-22T03:48:22.078Z,8.90
2024-04-22T03:49:22.110Z,7.70
2024-04-22T03:50:22.056Z,7.70
2024-04-22T03:51:22.038Z,8.80
2024-04-22T03:52:22.084Z,8.40
2024-04-22T03:53:22.038Z,7.00
2024-04-22T03:54:22.025Z,8.60
2024-04-22T03:55:22.024Z,9.60
2024-04-22T03:56:21.973Z,9.00
2024-04-22T03:57:21.972Z,8.90
2024-04-22T03:58:21.976Z,8.50
2024-04-22T03:59:21.935Z,8.10
2024-04-22T04:00:21.963Z,9.80
2024-04-22T04:01:21.990Z,8.30
2024-04-22T04:02:21.922Z,10.20
2024-04-22T04:03:21.920Z,9.80
2024-04-22T04:04:22.072Z,8.60
2024-04-22T04:05:23.201Z,8.00
2024-04-22T04:06:21.860Z,9.50
2024-04-22T04:07:21.915Z,9.40
2024-04-22T04:08:21.842Z,8.80
2024-04-22T04:09:21.825Z,8.70
2024-04-22T04:10:21.817Z,9.00
2024-04-22T04:11:21.821Z,8.70
2024-04-22T04:12:21.767Z,10.20
2024-04-22T04:13:21.789Z,9.30
2024-04-22T04:14:21.751Z,9.90
2024-04-22T04:15:21.731Z,10.00
2024-04-22T04:16:21.822Z,9.40
2024-04-22T04:17:21.868Z,11.10
2024-04-22T04:18:21.814Z,11.30
2024-04-22T04:19:21.747Z,9.90
2024-04-22T04:20:21.666Z,9.60
2024-04-22T04:21:21.696Z,8.10
2024-04-22T04:22:21.671Z,9.10
2024-04-22T04:23:21.630Z,8.80
2024-04-22T04:24:21.622Z,9.60
2024-04-22T04:25:21.631Z,9.60
2024-04-22T04:26:21.603Z,8.10
2024-04-22T04:27:21.599Z,9.20
2024-04-22T04:28:21.620Z,8.80
2024-04-22T04:29:21.574Z,9.10
2024-04-22T04:30:21.543Z,11.90
2024-04-22T04:31:21.621Z,10.50
2024-04-22T04:32:21.590Z,8.40
2024-04-22T04:33:21.513Z,8.70
2024-04-22T04:34:21.533Z,9.00
2024-04-22T04:35:21.469Z,9.00
2024-04-22T04:36:21.463Z,9.20
2024-04-22T04:37:21.489Z,9.50
2024-04-22T04:38:21.478Z,9.70
2024-04-22T04:39:21.431Z,9.00
2024-04-22T04:40:21.460Z,10.30
2024-04-22T04:41:21.436Z,11.30
2024-04-22T04:42:21.410Z,10.00
2024-04-22T04:43:21.439Z,10.00
2024-04-22T04:44:21.399Z,10.40
2024-04-22T04:45:21.352Z,9.90
2024-04-22T04:46:21.341Z,9.90
2024-04-22T04:47:21.449Z,9.30
2024-04-22T04:48:21.395Z,9.20
2024-04-22T04:49:21.379Z,9.50
2024-04-22T04:50:21.290Z,9.20
2024-04-22T04:51:21.288Z,11.70
2024-04-22T04:52:21.293Z,10.10
2024-04-22T04:53:21.264Z,8.80
2024-04-22T04:54:21.261Z,9.70
2024-04-22T04:55:21.240Z,9.50
2024-04-22T04:56:21.932Z,9.50
2024-04-22T04:57:21.191Z,10.50
2024-04-22T04:58:23.889Z,10.00
2024-04-22T04:59:21.192Z,11.60
2024-04-22T05:00:21.180Z,10.50
2024-04-22T05:01:21.302Z,10.10
2024-04-22T05:02:21.265Z,12.30
2024-04-22T05:03:21.221Z,10.10
2024-04-22T05:04:21.131Z,12.60
2024-04-22T05:05:21.130Z,14.40
2024-04-22T05:06:21.086Z,14.30
2024-04-22T05:07:21.260Z,14.80
2024-04-22T05:08:21.071Z,18.70
2024-04-22T05:09:21.060Z,19.50
2024-04-22T05:10:21.115Z,17.10
2024-04-22T05:11:21.083Z,19.00
2024-04-22T05:12:20.995Z,21.70
2024-04-22T05:13:21.085Z,23.90
2024-04-22T05:14:21.010Z,19.70
2024-04-22T05:15:20.986Z,18.10
2024-04-22T05:16:21.110Z,17.20
2024-04-22T05:17:20.957Z,18.90
2024-04-22T05:18:20.987Z,19.10
2024-04-22T05:19:20.970Z,18.70
2024-04-22T05:20:20.912Z,17.60
2024-04-22T05:21:20.918Z,18.40
2024-04-22T05:22:20.958Z,18.30
2024-04-22T05:23:20.874Z,16.70
2024-04-22T05:24:20.864Z,18.90
2024-04-22T05:25:20.896Z,17.20
2024-04-22T05:26:20.853Z,19.20
2024-04-22T05:27:20.871Z,14.20
2024-04-22T05:28:20.826Z,13.90
2024-04-22T05:29:20.821Z,12.30
2024-04-22T05:30:20.774Z,11.00
2024-04-22T05:31:20.805Z,11.80
2024-04-22T05:32:20.780Z,11.80
2024-04-22T05:33:20.795Z,11.90
2024-04-22T05:34:20.836Z,14.00
2024-04-22T05:35:20.734Z,15.90
2024-04-22T05:36:20.714Z,11.00
2024-04-22T05:37:20.713Z,12.20
2024-04-22T05:38:20.692Z,12.80
2024-04-22T05:39:20.664Z,13.40
2024-04-22T05:40:20.661Z,10.40
2024-04-22T05:41:20.660Z,11.90
2024-04-22T05:42:20.648Z,11.70
2024-04-22T05:43:20.678Z,11.60
2024-04-22T05:44:20.602Z,12.30
2024-04-22T05:45:20.625Z,13.10
2024-04-22T05:46:20.596Z,12.90
2024-04-22T05:47:20.607Z,12.00
2024-04-22T05:48:20.658Z,13.20
2024-04-22T05:49:20.603Z,12.90
2024-04-22T05:50:20.552Z,12.00
2024-04-22T05:51:20.510Z,14.60
2024-04-22T05:52:20.540Z,12.10
2024-04-22T05:53:20.532Z,12.80
2024-04-22T05:54:20.505Z,12.30
2024-04-22T05:55:20.563Z,13.40
2024-04-22T05:56:20.455Z,12.70
2024-04-22T05:57:20.481Z,11.20
2024-04-22T05:58:20.449Z,11.00
2024-04-22T05:59:20.426Z,10.30
2024-04-22T06:00:20.434Z,12.30
2024-04-22T06:01:20.470Z,11.50
2024-04-22T06:02:20.484Z,10.40
2024-04-22T06:03:20.383Z,11.80
2024-04-22T06:04:20.438Z,14.60
2024-04-22T06:05:20.370Z,10.70
2024-04-22T06:06:20.338Z,10.50
2024-04-22T06:07:20.358Z,10.80
2024-04-22T06:08:20.323Z,12.00
2024-04-22T06:09:20.296Z,10.60
2024-04-22T06:10:20.289Z,11.70
2024-04-22T06:11:20.324Z,11.30
2024-04-22T06:12:20.567Z,11.70
2024-04-22T06:13:20.266Z,11.00
2024-04-22T06:14:20.222Z,12.20
2024-04-22T06:15:20.203Z,12.70
2024-04-22T06:16:20.291Z,11.10
2024-04-22T06:17:20.305Z,11.20
2024-04-22T06:18:20.187Z,8.70
2024-04-22T06:19:20.184Z,10.90
2024-04-22T06:20:20.161Z,10.30
2024-04-22T06:21:20.145Z,10.50
2024-04-22T06:22:20.169Z,10.70
2024-04-22T06:23:20.127Z,11.00
2024-04-22T06:24:20.090Z,10.90
2024-04-22T06:25:20.105Z,11.30
2024-04-22T06:26:20.075Z,12.00
2024-04-22T06:27:20.088Z,10.10
2024-04-22T06:28:20.060Z,9.50
2024-04-22T06:29:20.026Z,11.10
2024-04-22T06:30:20.029Z,12.70
2024-04-22T06:31:20.054Z,9.60
2024-04-22T06:32:20.107Z,9.70
2024-04-22T06:33:20.132Z,9.80
2024-04-22T06:34:19.986Z,10.00
2024-04-22T06:35:19.962Z,10.30
2024-04-22T06:36:19.942Z,10.60
2024-04-22T06:37:19.987Z,9.20
2024-04-22T06:38:19.978Z,10.20
2024-04-22T06:39:19.923Z,10.20
2024-04-22T06:40:19.931Z,10.30
2024-04-22T06:41:19.874Z,9.70
2024-04-22T06:42:19.855Z,9.90
2024-04-22T06:43:19.873Z,9.20
2024-04-22T06:44:19.854Z,9.20
2024-04-22T06:45:19.823Z,9.50
2024-04-22T06:46:19.856Z,11.20
2024-04-22T06:47:19.826Z,10.60
2024-04-22T06:48:19.806Z,10.90
2024-04-22T06:49:19.789Z,10.20
2024-04-22T06:50:19.768Z,11.00
2024-04-22T06:51:19.747Z,8.50
2024-04-22T06:52:19.768Z,9.20
2024-04-22T06:53:19.712Z,11.10
2024-04-22T06:54:19.710Z,9.70
2024-04-22T06:55:20.673Z,8.60
2024-04-22T06:56:19.671Z,9.70
2024-04-22T06:57:19.676Z,9.10
2024-04-22T06:58:19.674Z,10.10
2024-04-22T06:59:19.646Z,10.50
2024-04-22T07:00:19.636Z,10.00
2024-04-22T07:01:27.579Z,10.40
2024-04-22T07:02:22.243Z,10.70
2024-04-22T07:03:19.811Z,10.90
2024-04-22T07:04:19.701Z,9.50
2024-04-22T07:05:19.695Z,8.80
2024-04-22T07:06:19.572Z,10.30
2024-04-22T07:07:19.617Z,10.30
2024-04-22T07:08:19.520Z,9.40
2024-04-22T07:09:19.517Z,10.00
2024-04-22T07:10:19.514Z,10.70
2024-04-22T07:11:19.677Z,9.30
2024-04-22T07:12:19.490Z,11.10
2024-04-22T07:13:19.525Z,9.10
2024-04-22T07:14:19.446Z,13.60
2024-04-22T07:15:19.446Z,9.00
2024-04-22T07:16:19.463Z,8.70
2024-04-22T07:17:19.453Z,9.50
2024-04-22T07:18:19.435Z,8.60
2024-04-22T07:19:19.414Z,7.20
2024-04-22T07:20:19.391Z,9.40
2024-04-22T07:21:19.364Z,7.60
2024-04-22T07:22:19.389Z,8.30
2024-04-22T07:23:19.346Z,9.60
2024-04-22T07:24:19.348Z,6.50
2024-04-22T07:25:19.353Z,10.20
2024-04-22T07:26:19.296Z,12.10
2024-04-22T07:28:19.298Z,7.50
2024-04-22T07:29:19.263Z,8.80
2024-04-22T07:30:19.266Z,9.30
2024-04-22T07:31:19.228Z,8.40
2024-04-22T07:32:19.239Z,7.50
2024-04-22T07:33:19.277Z,7.30
2024-04-22T07:34:19.264Z,7.30
2024-04-22T07:35:19.163Z,8.70
2024-04-22T07:36:19.163Z,6.70
2024-04-22T07:37:19.185Z,8.40
2024-04-22T07:38:19.125Z,7.70
2024-04-22T07:39:19.123Z,6.60
2024-04-22T07:40:19.219Z,6.10
2024-04-22T07:41:19.094Z,6.90
2024-04-22T07:42:19.077Z,8.20
2024-04-22T07:43:19.118Z,7.10
2024-04-22T07:44:19.087Z,6.60
2024-04-22T07:45:19.913Z,9.50
2024-04-22T07:46:19.033Z,7.30
2024-04-22T07:47:19.036Z,7.90
2024-04-22T07:48:19.061Z,6.30
2024-04-22T07:49:19.017Z,5.60
2024-04-22T07:50:18.989Z,5.20
2024-04-22T07:51:18.958Z,6.00
2024-04-22T07:52:18.990Z,5.30
2024-04-22T07:53:18.998Z,6.40
2024-04-22T07:54:18.944Z,5.70
2024-04-22T07:55:18.984Z,5.30
2024-04-22T07:56:18.901Z,4.80
2024-04-22T07:57:18.902Z,7.00
2024-04-22T07:58:18.898Z,5.70
2024-04-22T07:59:18.851Z,5.50
2024-04-22T08:00:18.855Z,4.80
2024-04-22T08:01:18.850Z,5.70
2024-04-22T08:02:18.823Z,6.70
2024-04-22T08:03:18.793Z,5.40
2024-04-22T08:04:18.828Z,5.30
2024-04-22T08:05:18.798Z,5.30
2024-04-22T08:06:18.778Z,5.60
2024-04-22T08:07:18.768Z,5.40
2024-04-22T08:08:18.729Z,5.20
2024-04-22T08:09:18.717Z,7.70
2024-04-22T08:10:18.731Z,5.10
2024-04-22T08:11:18.732Z,5.40
2024-04-22T08:12:18.719Z,4.40
2024-04-22T08:13:18.707Z,6.30
2024-04-22T08:14:18.655Z,5.10
2024-04-22T08:15:18.655Z,5.00
2024-04-22T08:16:18.785Z,4.10
2024-04-22T08:17:18.704Z,4.60
2024-04-22T08:18:18.637Z,4.20
2024-04-22T08:19:18.612Z,5.70
2024-04-22T08:20:18.578Z,5.80
2024-04-22T08:21:18.584Z,5.50
2024-04-22T08:22:18.671Z,6.20
2024-04-22T08:23:18.553Z,5.50
2024-04-22T08:24:18.529Z,4.80
2024-04-22T08:25:18.542Z,4.90
2024-04-22T08:26:18.523Z,4.50
2024-04-22T08:27:18.490Z,4.50
2024-04-22T08:28:18.525Z,7.30
2024-04-22T08:29:18.463Z,4.80
2024-04-22T08:30:18.452Z,4.70
2024-04-22T08:31:18.482Z,3.90
2024-04-22T08:32:18.477Z,5.30
2024-04-22T08:33:18.511Z,4.40
2024-04-22T08:34:18.420Z,4.00
2024-04-22T08:35:18.385Z,5.30
2024-04-22T08:36:18.352Z,4.90
2024-04-22T08:37:18.368Z,4.50
2024-04-22T08:38:18.357Z,4.80
2024-04-22T08:39:18.320Z,5.70
2024-04-22T08:40:22.709Z,5.30
2024-04-22T08:41:19.293Z,4.80
2024-04-22T08:42:18.282Z,6.20
2024-04-22T08:43:18.306Z,10.70
2024-04-22T08:44:18.271Z,5.60
2024-04-22T08:45:18.287Z,5.20
2024-04-22T08:46:18.256Z,5.40
2024-04-22T08:47:18.257Z,5.70
2024-04-22T08:48:18.220Z,5.20
2024-04-22T08:49:18.220Z,4.60
2024-04-22T08:50:18.192Z,8.80
2024-04-22T08:51:18.186Z,6.10
2024-04-22T08:52:18.176Z,5.10
2024-04-22T08:53:18.294Z,4.30
2024-04-22T08:54:21.907Z,5.70
2024-04-22T08:55:19.190Z,4.30
2024-04-22T08:56:18.120Z,5.10
2024-04-22T08:57:18.084Z,5.30
2024-04-22T08:58:18.119Z,5.10
2024-04-22T08:59:29.562Z,4.40
2024-04-22T09:00:19.072Z,5.00
2024-04-22T09:01:18.151Z,5.90
2024-04-22T09:02:18.087Z,6.00
2024-04-22T09:03:18.080Z,4.30
2024-04-22T09:04:18.117Z,4.00
2024-04-22T09:05:18.291Z,4.70
2024-04-22T09:06:17.978Z,4.80
2024-04-22T09:07:18.105Z,5.50
2024-04-22T09:08:17.972Z,5.20
2024-04-22T09:09:26.451Z,4.70
2024-04-22T09:10:49.344Z,7.60
2024-04-22T09:12:18.111Z,4.90
2024-04-22T09:13:18.524Z,5.50
2024-04-22T09:14:18.010Z,4.60
2024-04-22T09:15:17.923Z,5.80
2024-04-22T09:16:17.942Z,4.40
2024-04-22T09:17:17.953Z,4.50
2024-04-22T09:18:18.035Z,5.10
2024-04-22T09:19:17.998Z,4.90
2024-04-22T09:20:17.821Z,5.20
2024-04-22T09:21:17.791Z,4.60
2024-04-22T09:22:17.825Z,4.80
2024-04-22T09:23:17.804Z,5.30
2024-04-22T09:24:17.773Z,4.80
2024-04-22T09:25:17.727Z,6.10
2024-04-22T09:26:17.947Z,5.70
2024-04-22T09:27:17.797Z,7.60
2024-04-22T09:28:17.769Z,4.70
2024-04-22T09:29:17.752Z,5.10
2024-04-22T09:30:17.717Z,3.90
2024-04-22T09:31:17.762Z,4.90
2024-04-22T09:32:17.773Z,4.20
2024-04-22T09:33:19.384Z,3.60
2024-04-22T09:34:17.708Z,4.20
2024-04-22T09:35:19.588Z,3.30
2024-04-22T09:36:17.595Z,4.50
2024-04-22T09:37:17.696Z,4.40
2024-04-22T09:39:17.572Z,4.50
2024-04-22T09:40:17.547Z,3.60
2024-04-22T09:41:17.776Z,4.60
2024-04-22T09:42:17.585Z,4.50
2024-04-22T09:43:17.499Z,4.20
2024-04-22T09:44:18.321Z,3.30
2024-04-22T09:45:17.686Z,5.10
2024-04-22T09:46:17.495Z,4.20
2024-04-22T09:47:17.525Z,4.50
2024-04-22T09:48:17.573Z,4.90
2024-04-22T09:49:17.758Z,4.80
2024-04-22T09:50:17.682Z,4.10
2024-04-22T09:51:17.521Z,4.70
2024-04-22T09:52:17.390Z,4.40
2024-04-22T09:53:17.370Z,4.00
2024-04-22T09:54:17.354Z,4.30
2024-04-22T09:55:17.661Z,4.00
2024-04-22T09:56:17.575Z,4.40
2024-04-22T09:57:17.295Z,4.50
2024-04-22T09:58:17.317Z,4.00
2024-04-22T09:59:18.213Z,4.40
2024-04-22T10:00:17.559Z,2.90
2024-04-22T10:01:17.413Z,4.30
2024-04-22T10:02:17.331Z,3.80
2024-04-22T10:03:17.270Z,2.90
2024-04-22T10:04:17.577Z,2.90
2024-04-22T10:05:17.389Z,3.50
2024-04-22T10:06:17.569Z,4.20
2024-04-22T10:07:17.445Z,4.70
2024-04-22T10:08:17.190Z,3.00
2024-04-22T10:09:17.264Z,3.00
2024-04-22T10:10:17.282Z,7.70
2024-04-22T10:11:17.222Z,4.30
2024-04-22T10:12:18.496Z,4.10
2024-04-22T10:13:17.095Z,3.60
2024-04-22T10:14:17.149Z,3.00
2024-04-22T10:15:17.465Z,2.90
2024-04-22T10:16:17.242Z,3.00
2024-04-22T10:17:17.058Z,3.90
2024-04-22T10:18:17.282Z,3.30
2024-04-22T10:19:17.181Z,3.70
2024-04-22T10:20:17.072Z,3.00
2024-04-22T10:21:17.016Z,4.80
2024-04-22T10:22:17.012Z,2.90
2024-04-22T10:23:16.969Z,4.30
2024-04-22T10:24:16.956Z,3.50
2024-04-22T10:25:16.938Z,3.70
2024-04-22T10:26:16.917Z,3.20
2024-04-22T10:27:16.919Z,5.30
2024-04-22T10:28:16.971Z,3.00
2024-04-22T10:29:16.866Z,3.00
2024-04-22T10:30:16.867Z,3.50
2024-04-22T10:31:16.844Z,3.20
2024-04-22T10:32:16.849Z,3.50
2024-04-22T10:33:16.930Z,3.50
2024-04-22T10:34:16.847Z,3.80
2024-04-22T10:35:16.790Z,3.30
2024-04-22T10:36:16.798Z,3.70
2024-04-22T10:37:16.913Z,3.90
2024-04-22T10:38:16.750Z,5.80
2024-04-22T10:39:16.761Z,4.30
2024-04-22T10:40:16.791Z,4.20
2024-04-22T10:41:16.708Z,4.70
2024-04-22T10:42:16.701Z,5.60
2024-04-22T10:43:16.753Z,5.50
2024-04-22T10:44:16.678Z,4.50
2024-04-22T10:45:16.693Z,3.20
2024-04-22T10:46:16.675Z,4.50
2024-04-22T10:47:16.637Z,4.40
2024-04-22T10:48:18.453Z,4.30
2024-04-22T10:49:17.117Z,3.80
2024-04-22T10:50:17.479Z,4.10
2024-04-22T10:51:16.573Z,3.10
2024-04-22T10:52:16.602Z,4.90
2024-04-22T10:53:16.553Z,3.60
2024-04-22T10:54:16.634Z,3.40
2024-04-22T10:55:16.560Z,3.90
2024-04-22T10:56:16.513Z,3.50
2024-04-22T10:57:16.516Z,4.90
2024-04-22T10:58:16.733Z,4.00
2024-04-22T10:59:16.502Z,5.40
2024-04-22T11:00:16.492Z,5.20
2024-04-22T11:01:16.603Z,4.60
2024-04-22T11:02:16.546Z,3.70
2024-04-22T11:03:16.415Z,4.20
2024-04-22T11:04:16.451Z,3.80
2024-04-22T11:05:17.163Z,3.20
2024-04-22T11:06:16.408Z,4.00
2024-04-22T11:07:16.415Z,2.90
2024-04-22T11:08:16.368Z,3.80
2024-04-22T11:09:16.348Z,5.90
2024-04-22T11:10:19.683Z,3.20
2024-04-22T11:11:17.411Z,4.20
2024-04-22T11:12:16.359Z,3.80
2024-04-22T11:13:16.355Z,5.70
2024-04-22T11:14:16.272Z,3.20
2024-04-22T11:15:16.314Z,3.40
2024-04-22T11:16:16.384Z,4.50
2024-04-22T11:17:16.268Z,4.00
2024-04-22T11:18:16.235Z,4.70
2024-04-22T11:19:16.221Z,3.40
2024-04-22T11:20:16.213Z,4.60
2024-04-22T11:21:16.199Z,4.30
2024-04-22T11:22:16.220Z,4.80
2024-04-22T11:23:16.178Z,4.00
2024-04-22T11:24:16.169Z,5.40
2024-04-22T11:25:16.232Z,3.90
2024-04-22T11:26:16.137Z,4.50
2024-04-22T11:27:16.124Z,4.10
2024-04-22T11:28:16.119Z,3.20
2024-04-22T11:29:16.069Z,4.00
2024-04-22T11:30:16.086Z,6.10
2024-04-22T11:31:16.082Z,3.30
2024-04-22T11:32:16.085Z,3.10
2024-04-22T11:33:16.145Z,4.60
2024-04-22T11:34:16.008Z,3.70
2024-04-22T11:35:16.108Z,4.10
2024-04-22T11:36:16.000Z,4.40
2024-04-22T11:37:16.000Z,4.60
2024-04-22T11:38:15.967Z,5.40
2024-04-22T11:39:16.230Z,6.40
2024-04-22T11:40:16.008Z,4.30
2024-04-22T11:41:15.929Z,4.10
2024-04-22T11:42:15.905Z,4.10
2024-04-22T11:43:15.927Z,4.00
2024-04-22T11:44:15.910Z,3.80
2024-04-22T11:45:15.995Z,3.40
2024-04-22T11:46:15.890Z,5.80
2024-04-22T11:47:15.900Z,5.40
2024-04-22T11:48:15.920Z,4.70
2024-04-22T11:49:16.822Z,4.10
2024-04-22T11:50:15.816Z,4.20
2024-04-22T11:51:15.792Z,4.00
2024-04-22T11:52:15.806Z,4.10
2024-04-22T11:53:23.524Z,4.10
2024-04-22T11:54:16.755Z,5.70
2024-04-22T11:55:15.821Z,4.80
2024-04-22T11:56:15.725Z,3.50
2024-04-22T11:57:15.724Z,5.80
2024-04-22T11:58:15.773Z,5.10
2024-04-22T11:59:15.694Z,4.30
2024-04-22T12:00:15.692Z,4.80
2024-04-22T12:01:15.731Z,4.00
2024-04-22T12:02:15.670Z,4.80
2024-04-22T12:03:15.636Z,3.90
2024-04-22T12:04:15.723Z,4.50
2024-04-22T12:05:15.777Z,4.00
2024-04-22T12:06:15.714Z,4.50
2024-04-22T12:07:15.607Z,5.10
2024-04-22T12:08:15.561Z,8.40
2024-04-22T12:09:15.549Z,5.20
2024-04-22T12:10:15.591Z,4.00
2024-04-22T12:11:15.567Z,4.00
2024-04-22T12:12:15.528Z,5.60
2024-04-22T12:13:15.527Z,4.80
2024-04-22T12:14:15.534Z,4.70
2024-04-22T12:15:15.467Z,6.00
2024-04-22T12:16:15.543Z,6.60
2024-04-22T12:17:15.475Z,5.10
2024-04-22T12:18:15.439Z,4.20
2024-04-22T12:19:15.433Z,3.90
2024-04-22T12:20:15.409Z,4.90
2024-04-22T12:21:15.431Z,4.00
2024-04-22T12:22:15.456Z,4.50
2024-04-22T12:23:15.364Z,4.00
2024-04-22T12:24:15.371Z,4.20
2024-04-22T12:25:15.416Z,4.20
2024-04-22T12:26:15.326Z,4.60
2024-04-22T12:27:15.371Z,4.80
2024-04-22T12:28:20.497Z,4.40
2024-04-22T12:29:16.294Z,5.40
2024-04-22T12:30:15.262Z,5.40
2024-04-22T12:31:15.283Z,4.80
2024-04-22T12:32:15.261Z,5.00
2024-04-22T12:33:15.312Z,5.20
2024-04-22T12:34:15.320Z,4.50
2024-04-22T12:35:15.212Z,3.90
2024-04-22T12:36:15.195Z,3.70
2024-04-22T12:37:15.216Z,4.50
2024-04-22T12:38:15.200Z,5.20
2024-04-22T12:39:15.235Z,6.00
2024-04-22T12:40:15.178Z,4.90
2024-04-22T12:41:15.129Z,5.20
2024-04-22T12:42:15.133Z,5.80
2024-04-22T12:43:15.093Z,5.30
2024-04-22T12:44:15.102Z,4.70
2024-04-22T12:45:15.071Z,4.40
2024-04-22T12:46:15.099Z,4.90
2024-04-22T12:47:15.052Z,5.00
2024-04-22T12:48:15.153Z,4.50
2024-04-22T12:49:15.018Z,4.40
2024-04-22T12:50:15.030Z,5.50
2024-04-22T12:51:14.992Z,5.60
2024-04-22T12:52:14.991Z,4.30
2024-04-22T12:53:14.983Z,4.50
2024-04-22T12:54:14.953Z,4.10
2024-04-22T12:55:15.058Z,5.60
2024-04-22T12:56:15.050Z,6.00
2024-04-22T12:57:14.910Z,6.00
2024-04-22T12:58:15.049Z,4.50
2024-04-22T12:59:14.903Z,5.10
2024-04-22T13:00:15.039Z,4.60
2024-04-22T13:01:14.998Z,5.00
2024-04-22T13:02:14.899Z,5.40
2024-04-22T13:03:14.901Z,5.50
2024-04-22T13:04:14.901Z,4.60
2024-04-22T13:05:14.923Z,5.70
2024-04-22T13:06:14.828Z,4.60
2024-04-22T13:07:14.795Z,5.80
2024-04-22T13:08:14.762Z,5.60
2024-04-22T13:09:14.957Z,5.60
2024-04-22T13:10:14.811Z,4.60
2024-04-22T13:11:14.824Z,5.40
2024-04-22T13:12:14.731Z,4.80
2024-04-22T13:13:15.262Z,5.00
2024-04-22T13:14:14.684Z,6.00
2024-04-22T13:15:14.708Z,5.20
2024-04-22T13:16:14.671Z,4.10